KCOM

Coleman Municipal Airport

Coleman, Texas, USA
METAR KCOM 162255Z AUTO 21010KT 10SM CLR 19/10 A3007 RMK AO2 T01850096
Observed Flight Rules
Jan-16 @ 22:55 UTC (17 minutes ago) Visual Flight Rules
Wind Visibility Clouds
210° at 10 knots 10 miles
  • Clear skies
Temperatures Readings
Current 19°C / 66°F
Dewpoint 10°C / 50°F
Humidity 56%
Altimeter 30.07" Hg
Pressure 1018.32 hPa
Elevation 517
METAR KCOM 162255Z AUTO 21010KT 10SM CLR 19/10 A3007 RMK AO2 T01850096
Observed Flight Rules
Jan-16 @ 22:55 UTC
(17 minutes ago)
VFR
Wind Visibility
210° at 10 knots 10 miles
Clouds
  • Clear skies
Temperature Dewpoint
19°C / 66°F 10°C / 50°F
Humidity Altimeter Pressure
56% 30.07" Hg 1018.32 hPa